Flight Track Log - Related Links

Times and Time Zones

All times are in EDT time to prevent confusion due to time zone crossing. See the N89TC flight status page for this flight to view local times or setup timezone preferences in your user account.

Time Position Orientation Groundspeed Altitude Reporting Facility
EDT Latitude Longitude Course Direction KTS MPH feet Rate Location/Type
Thu 02:22:31 PM 40.9983 -81.3808 139° Southeast 267 307 5,500  Level Cleveland Center
Thu 02:23:31 PM 40.9403 -81.3142 139° Southeast 224 258 7,100 2,250 Climbing Cleveland Center
Thu 02:24:31 PM 40.8528 -81.3161 181° South 251 289 10,000 2,950 Climbing Cleveland Center
Thu 02:25:31 PM 40.7611 -81.3122 178° South 312 359 13,000 2,900 Climbing Cleveland Center
Thu 02:26:31 PM 40.6692 -81.3386 192° South 338 389 15,800 2,650 Climbing Cleveland Center
Thu 02:27:31 PM 40.5708 -81.3839 199° South 338 389 18,300 2,350 Climbing Cleveland Center
Thu 02:28:31 PM 40.4725 -81.4375 203° Southwest 371 427 20,500 2,615 Climbing Cleveland Center
Thu 02:30:30 PM 40.2903 -81.5344 202° Southwest 350 403 26,100 2,420 Climbing Indianapolis Center
Thu 02:31:32 PM 40.2033 -81.5958 208° Southwest 352 405 27,800 1,366 Climbing Indianapolis Center
Thu 02:32:33 PM 40.1158 -81.6672 212° Southwest 365 420 28,900 927 Climbing Indianapolis Center
Thu 02:33:35 PM 40.0219 -81.7428 212° Southwest 389 448 29,700 1,210 Climbing Indianapolis Center
Thu 02:34:37 PM 39.9278 -81.8233 213° Southwest 390 449 31,400 1,366 Climbing Indianapolis Center
Thu 02:35:38 PM 39.8369 -81.8917 210° Southwest 375 432 32,500 780 Climbing Indianapolis Center
Thu 02:36:40 PM 39.7397 -81.9500 205° Southwest 378 435 33,000 484 Climbing Indianapolis Center
Thu 02:37:42 PM 39.6311 -82.0047 201° Southwest 390 449 33,500 581 Climbing Indianapolis Center
Thu 02:38:44 PM 39.5328 -82.0600 203° Southwest 386 444 34,200 532 Climbing Indianapolis Center
Thu 02:39:46 PM 39.4353 -82.1114 202° Southwest 382 440 34,600 488 Climbing Indianapolis Center
Thu 02:40:47 PM 39.3358 -82.1639 202° Southwest 386 444 35,200 585 Climbing Indianapolis Center
Thu 02:41:49 PM 39.2375 -82.2161 202° Southwest 384 442 35,800 1,016 Climbing Indianapolis Center
Thu 02:42:51 PM 39.1231 -82.2781 203° Southwest 374 430 37,300 871 Climbing Indianapolis Center
Thu 02:43:53 PM 39.0286 -82.3239 201° Southwest 366 421 37,600 387 Climbing Indianapolis Center
Thu 02:44:55 PM 38.9328 -82.3747 202° Southwest 371 427 38,100 634 Climbing Indianapolis Center
Thu 02:45:56 PM 38.8392 -82.4269 203° Southwest 370 426 38,900 683 Climbing Indianapolis Center
Thu 02:46:58 PM 38.7433 -82.4772 202° Southwest 374 430 39,500 532 Climbing Indianapolis Center
Thu 02:48:00 PM 38.6486 -82.5236 201° Southwest 368 423 40,000 242 Climbing Indianapolis Center
Thu 02:49:02 PM 38.5300 -82.5847 202° Southwest 378 435 40,000  Level Indianapolis Center
Thu 02:50:03 PM 38.4292 -82.6389 203° Southwest 390 449 40,000  Level Indianapolis Center
Thu 02:51:05 PM 38.3242 -82.6897 201° Southwest 399 459 40,000  Level Indianapolis Center
Thu 02:52:07 PM 38.2211 -82.7439 202° Southwest 401 461 40,000  Level Indianapolis Center
Thu 02:53:09 PM 38.1158 -82.7972 202° Southwest 405 466 40,000 49 Level Indianapolis Center
Thu 02:54:10 PM 38.0111 -82.8525 203° Southwest 407 468 40,100  Climbing Indianapolis Center
Thu 02:55:12 PM 37.8875 -82.9139 201° Southwest 409 471 40,000 -97 Descending Indianapolis Center
Thu 02:56:14 PM 37.7817 -82.9686 202° Southwest 410 472 39,900 -48 Descending Indianapolis Center
Thu 02:57:16 PM 37.6750 -83.0219 202° Southwest 410 472 39,900  Level Indianapolis Center
Thu 02:58:18 PM 37.5683 -83.0772 202° Southwest 414 476 39,900 -145 Level Indianapolis Center
Thu 02:59:20 PM 37.4603 -83.1306 201° Southwest 415 478 39,600 -726 Descending Indianapolis Center
Thu 03:00:22 PM 37.3522 -83.1844 202° Southwest 418 481 38,400 -1,500 Descending Indianapolis Center
Thu 03:01:24 PM 37.2239 -83.2497 202° Southwest 426 490 36,500 -1,210 Descending Indianapolis Center
Thu 03:02:26 PM 37.1272 -83.3272 213° Southwest 414 476 35,900 -532 Descending Indianapolis Center
Thu 03:03:28 PM 37.0428 -83.4172 220° Southwest 403 464 35,400 -439 Descending Indianapolis Center
Thu 03:04:29 PM 36.9628 -83.5017 220° Southwest 385 443 35,000 -244 Descending Indianapolis Center
Thu 03:05:31 PM 36.8642 -83.5947 217° Southwest 382 440 34,900  Descending Indianapolis Center
Thu 03:06:33 PM 36.7756 -83.6664 213° Southwest 379 436 35,000 48 Climbing Indianapolis Center
Thu 03:07:35 PM 36.6806 -83.7317 209° Southwest 386 444 35,000  Level Indianapolis Center
Thu 03:08:37 PM 36.5775 -83.7839 202° Southwest 393 452 35,000 -387 Level Indianapolis Center
Thu 03:09:39 PM 36.4539 -83.8175 192° South 407 468 34,200 -919 Descending Indianapolis Center
Thu 03:10:41 PM 36.3331 -83.8436 190° South 433 498 33,100 -871 Descending Indianapolis Center
Thu 03:11:43 PM 36.2100 -83.8625 187° South 441 507 32,400 -435 Descending Indianapolis Center
Thu 03:12:45 PM 36.0864 -83.8700 183° South 442 509 32,200 -1,016 Descending Indianapolis Center
Thu 03:13:47 PM 35.9681 -83.8592 176° South 427 491 30,300 -1,866 Descending Indianapolis Center
Thu 03:14:44 PM 35.8350 -83.8389 173° South 442 509 28,500 -1,846 Descending Atlanta Center
Thu 03:15:44 PM 35.7097 -83.8086 169° South 448 516 26,700 -1,600 Descending Atlanta Center
Thu 03:16:44 PM 35.5867 -83.7758 168° South 458 527 25,300 -1,850 Descending Atlanta Center
Thu 03:17:44 PM 35.4697 -83.7431 167° South 447 514 23,000 -2,150 Descending Atlanta Center
Thu 03:18:44 PM 35.3528 -83.7408 179° South 435 501 21,000 -1,967 Descending Atlanta Center
Thu 03:20:00 PM 35.2303 -83.7081 168° South  Level FlightAware Approximate
Thu 03:20:44 PM 35.1358 -83.7314 168° South 397 457 17,100  Level Atlanta Center
Thu 03:21:44 PM 35.0397 -83.7494 189° South 373 429 14,900 -2,100 Descending Atlanta Center
Thu 03:22:44 PM 34.9564 -83.7903 202° Southwest 346 398 12,900 -1,800 Descending Atlanta Center
Thu 03:23:44 PM 34.8792 -83.8161 195° South 311 358 11,300 -1,350 Descending Atlanta Center
Thu 03:24:44 PM 34.8083 -83.8414 196° South 274 315 10,200 -933 Descending Atlanta Center
Thu 03:26:00 PM 34.6804 -83.8681 202° Southwest  Level FlightAware Approximate
Thu 03:26:44 PM 34.6811 -83.9175 202° Southwest 257 296 8,500  Level Atlanta Center
Thu 03:27:44 PM 34.6081 -83.9453 197° South 275 316 7,000 -700 Descending Atlanta Center
Thu 03:28:44 PM 34.5331 -83.9681 194° South 288 331 7,100 -200 Climbing Atlanta Center
Thu 03:29:44 PM 34.4642 -83.9961 199° South 274 315 6,600 -650 Descending Atlanta Center
Thu 03:30:44 PM 34.4017 -84.0286 203° Southwest 259 298 5,800 -200 Descending Atlanta Center
Thu 03:31:44 PM 34.3431 -84.0564 201° Southwest 238 274 6,200 -600 Climbing Atlanta Center
Thu 03:32:44 PM 34.2994 -84.1117 226° Southwest 222 255 4,600 -1,100 Descending Atlanta Center
Thu 03:33:44 PM 34.2533 -84.1769 229° Southwest 233 268 4,000 -450 Descending Atlanta Center
Thu 03:34:44 PM 34.2178 -84.2297 231° Southwest 228 262 3,700 -450 Descending Atlanta Center
Thu 03:35:44 PM 34.1822 -84.2875 233° Southwest 221 254 3,100 -300 Descending Atlanta Center
Thu 03:36:44 PM 34.1403 -84.3475 230° Southwest 227 261 3,100 -150 Level Atlanta Center
Thu 03:37:44 PM 34.0964 -84.4050 227° Southwest 227 261 2,800 -109 Descending Atlanta Center
Thu 03:39:29 PM 34.0167 -84.5000 225° Southwest 213 245 2,800 -364 Level Atlanta TRACON
Thu 03:40:29 PM 34.0167 -84.5500 270° West 164 189 1,800 -1,000 Descending Atlanta TRACON
Thu 03:42:00 PM 34.0000 -84.5833 248° West  Level FlightAware Approximate

Login

Don't have an account? Register now (free) for customized features, flight alerts, and more!